createdAt,value
2019-05-07T00:00:43.645Z,0.00
2019-05-07T00:01:42.347Z,0.00
2019-05-07T00:02:42.799Z,0.00
2019-05-07T00:03:42.270Z,0.00
2019-05-07T00:04:42.808Z,0.00
2019-05-07T00:05:42.800Z,0.00
2019-05-07T00:06:43.449Z,0.00
2019-05-07T00:07:43.067Z,0.00
2019-05-07T00:08:44.921Z,0.00
2019-05-07T00:09:43.153Z,0.00
2019-05-07T00:10:43.009Z,0.00
2019-05-07T00:11:42.696Z,0.00
2019-05-07T00:12:44.073Z,0.00
2019-05-07T00:13:44.427Z,0.00
2019-05-07T00:14:47.216Z,0.00
2019-05-07T00:15:45.589Z,0.00
2019-05-07T00:16:43.171Z,0.00
2019-05-07T00:17:44.085Z,0.00
2019-05-07T00:18:43.508Z,0.00
2019-05-07T00:19:43.683Z,0.00
2019-05-07T00:20:43.853Z,0.00
2019-05-07T00:21:44.005Z,0.00
2019-05-07T00:22:45.094Z,0.00
2019-05-07T00:23:45.116Z,0.00
2019-05-07T00:24:45.120Z,0.00
2019-05-07T00:25:44.606Z,0.00
2019-05-07T00:26:45.585Z,0.00
2019-05-07T00:27:45.580Z,0.00
2019-05-07T00:28:45.606Z,0.00
2019-05-07T00:29:45.269Z,0.00
2019-05-07T00:30:45.434Z,0.00
2019-05-07T00:31:46.094Z,0.00
2019-05-07T00:32:46.602Z,0.00
2019-05-07T00:33:46.979Z,0.00
2019-05-07T00:34:46.581Z,0.00
2019-05-07T00:35:46.631Z,0.00
2019-05-07T00:36:46.499Z,0.00
2019-05-07T00:37:46.650Z,0.00
2019-05-07T00:38:47.609Z,0.00
2019-05-07T00:39:46.987Z,0.00
2019-05-07T00:40:47.152Z,0.00
2019-05-07T00:41:47.267Z,0.00
2019-05-07T00:42:49.084Z,0.00
2019-05-07T00:43:47.692Z,0.00
2019-05-07T00:44:48.604Z,0.00
2019-05-07T00:45:48.003Z,0.00
2019-05-07T00:46:49.092Z,0.00
2019-05-07T00:47:49.085Z,0.00
2019-05-07T00:48:48.553Z,0.00
2019-05-07T00:50:09.694Z,0.00
2019-05-07T00:50:49.095Z,0.00
2019-05-07T00:51:49.090Z,0.00
2019-05-07T00:52:52.220Z,0.00
2019-05-07T00:53:49.350Z,0.00
2019-05-07T00:54:49.486Z,0.00
2019-05-07T00:55:49.629Z,0.00
2019-05-07T00:56:51.991Z,0.00
2019-05-07T00:57:50.002Z,0.00
2019-05-07T00:58:52.534Z,0.00
2019-05-07T00:59:52.323Z,0.00
2019-05-07T01:00:50.449Z,0.00
2019-05-07T01:01:52.654Z,0.00
2019-05-07T01:02:52.529Z,0.00
2019-05-07T01:03:53.427Z,0.00
2019-05-07T01:04:53.389Z,0.00
2019-05-07T01:05:52.881Z,0.00
2019-05-07T01:06:53.276Z,0.00
2019-05-07T01:07:53.056Z,0.00
2019-05-07T01:08:52.944Z,0.00
2019-05-07T01:09:52.473Z,0.00
2019-05-07T01:10:53.346Z,0.00
2019-05-07T01:11:52.594Z,0.00
2019-05-07T01:12:53.593Z,0.00
2019-05-07T01:13:52.956Z,0.00
2019-05-07T01:14:53.101Z,0.00
2019-05-07T01:16:14.199Z,0.00
2019-05-07T01:16:54.431Z,0.00
2019-05-07T01:17:53.516Z,0.00
2019-05-07T01:18:53.888Z,0.00
2019-05-07T01:19:55.626Z,0.00
2019-05-07T01:20:54.605Z,0.00
2019-05-07T01:21:54.623Z,0.00
2019-05-07T01:22:54.833Z,0.00
2019-05-07T01:23:55.616Z,0.00
2019-05-07T01:24:54.720Z,0.00
2019-05-07T01:25:54.879Z,0.00
2019-05-07T01:26:55.595Z,0.00
2019-05-07T01:27:55.602Z,0.00
2019-05-07T01:28:55.499Z,0.00
2019-05-07T01:29:55.636Z,0.00
2019-05-07T01:30:55.790Z,0.00
2019-05-07T01:31:55.931Z,0.00
2019-05-07T01:32:56.112Z,0.00
2019-05-07T01:33:56.245Z,0.00
2019-05-07T01:34:56.357Z,0.00
2019-05-07T01:35:56.513Z,0.00
2019-05-07T01:36:57.609Z,0.00
2019-05-07T01:37:57.121Z,0.00
2019-05-07T01:38:57.622Z,0.00
2019-05-07T01:39:57.120Z,0.00
2019-05-07T01:40:57.261Z,0.00
2019-05-07T01:41:57.426Z,0.00
2019-05-07T01:42:57.618Z,0.00
2019-05-07T01:43:57.784Z,0.00
2019-05-07T01:44:58.614Z,0.00
2019-05-07T01:45:59.093Z,0.00
2019-05-07T01:46:58.335Z,0.00
2019-05-07T01:47:58.504Z,0.00
2019-05-07T01:48:58.638Z,0.00
2019-05-07T01:49:58.822Z,0.00
2019-05-07T01:50:58.978Z,0.00
2019-05-07T01:52:02.308Z,0.00
2019-05-07T01:53:00.338Z,0.00
2019-05-07T01:54:02.145Z,0.00
2019-05-07T01:55:00.110Z,0.00
2019-05-07T01:55:59.967Z,0.00
2019-05-07T01:57:02.648Z,0.00
2019-05-07T01:58:00.249Z,0.00
2019-05-07T01:59:02.383Z,0.00
2019-05-07T02:00:02.635Z,0.00
2019-05-07T02:01:02.797Z,0.00
2019-05-07T02:02:02.982Z,0.00
2019-05-07T02:03:02.805Z,0.00
2019-05-07T02:04:02.402Z,0.00
2019-05-07T02:05:03.246Z,0.00
2019-05-07T02:06:02.565Z,0.00
2019-05-07T02:07:02.834Z,0.00
2019-05-07T02:08:03.028Z,0.00
2019-05-07T02:09:03.026Z,0.00
2019-05-07T02:10:02.842Z,0.00
2019-05-07T02:11:03.443Z,0.00
2019-05-07T02:12:03.600Z,0.00
2019-05-07T02:13:02.845Z,0.00
2019-05-07T02:14:02.973Z,0.00
2019-05-07T02:15:03.118Z,0.00
2019-05-07T02:16:04.256Z,0.00
2019-05-07T02:17:05.106Z,0.00
2019-05-07T02:18:03.556Z,0.00
2019-05-07T02:19:03.690Z,0.00
2019-05-07T02:20:03.930Z,0.00
2019-05-07T02:21:04.059Z,0.00
2019-05-07T02:22:04.296Z,0.00
2019-05-07T02:23:04.431Z,0.00
2019-05-07T02:24:05.104Z,0.00
2019-05-07T02:25:04.733Z,0.00
2019-05-07T02:26:04.858Z,0.00
2019-05-07T02:27:05.606Z,0.00
2019-05-07T02:28:05.229Z,0.00
2019-05-07T02:29:05.376Z,0.00
2019-05-07T02:30:05.520Z,0.00
2019-05-07T02:31:06.129Z,0.00
2019-05-07T02:32:05.881Z,0.00
2019-05-07T02:33:06.117Z,0.00
2019-05-07T02:34:06.219Z,0.00
2019-05-07T02:35:06.379Z,0.00
2019-05-07T02:36:07.125Z,0.00
2019-05-07T02:37:06.742Z,0.00
2019-05-07T02:38:06.893Z,0.00
2019-05-07T02:39:07.029Z,0.00
2019-05-07T02:40:08.108Z,0.00
2019-05-07T02:41:07.492Z,0.00
2019-05-07T02:42:07.614Z,0.00
2019-05-07T02:43:07.875Z,0.00
2019-05-07T02:44:07.983Z,0.00
2019-05-07T02:45:08.101Z,0.00
2019-05-07T02:46:22.423Z,0.00
2019-05-07T02:47:12.892Z,0.00
2019-05-07T02:48:09.122Z,0.00
2019-05-07T02:49:08.884Z,0.00
2019-05-07T02:50:08.998Z,0.00
2019-05-07T02:51:09.114Z,0.00
2019-05-07T02:52:09.262Z,0.00
2019-05-07T02:53:09.429Z,0.00
2019-05-07T02:54:13.194Z,0.00
2019-05-07T02:55:13.411Z,0.00
2019-05-07T02:56:12.982Z,0.00
2019-05-07T02:57:16.591Z,0.00
2019-05-07T02:58:13.702Z,0.00
2019-05-07T02:59:13.353Z,0.00
2019-05-07T03:00:14.047Z,0.00
2019-05-07T03:01:13.430Z,0.00
2019-05-07T03:02:13.734Z,0.00
2019-05-07T03:03:13.882Z,0.00
2019-05-07T03:04:12.931Z,0.00
2019-05-07T03:05:13.711Z,0.00
2019-05-07T03:06:13.524Z,0.00
2019-05-07T03:07:13.324Z,0.00
2019-05-07T03:08:13.706Z,0.00
2019-05-07T03:09:14.371Z,0.00
2019-05-07T03:10:13.984Z,0.00
2019-05-07T03:11:14.279Z,0.00
2019-05-07T03:12:13.633Z,0.00
2019-05-07T03:13:14.090Z,0.00
2019-05-07T03:14:14.362Z,0.00
2019-05-07T03:15:13.365Z,0.00
2019-05-07T03:16:14.255Z,0.00
2019-05-07T03:17:13.582Z,0.00
2019-05-07T03:18:14.471Z,0.00
2019-05-07T03:19:14.820Z,0.00
2019-05-07T03:20:14.156Z,0.00
2019-05-07T03:21:15.123Z,4.00
2019-05-07T03:22:14.326Z,4.00
2019-05-07T03:23:14.575Z,0.00
2019-05-07T03:24:14.690Z,0.00
2019-05-07T03:25:14.962Z,4.00
2019-05-07T03:26:15.117Z,0.00
2019-05-07T03:27:15.226Z,4.00
2019-05-07T03:28:16.115Z,4.00
2019-05-07T03:29:15.463Z,4.00
2019-05-07T03:30:17.099Z,4.00
2019-05-07T03:31:17.456Z,4.00
2019-05-07T03:32:16.350Z,8.00
2019-05-07T03:33:17.246Z,4.00
2019-05-07T03:34:16.888Z,8.00
2019-05-07T03:35:17.170Z,4.00
2019-05-07T03:36:17.490Z,8.00
2019-05-07T03:37:17.148Z,8.00
2019-05-07T03:38:17.006Z,12.00
2019-05-07T03:39:17.140Z,12.00
2019-05-07T03:40:17.252Z,12.00
2019-05-07T03:41:18.400Z,12.00
2019-05-07T03:42:17.673Z,12.00
2019-05-07T03:43:17.760Z,20.00
2019-05-07T03:44:17.913Z,20.00
2019-05-07T03:45:18.047Z,24.00
2019-05-07T03:46:18.192Z,28.00
2019-05-07T03:47:18.361Z,36.00
2019-05-07T03:48:18.529Z,44.00
2019-05-07T03:49:18.663Z,44.00
2019-05-07T03:50:18.819Z,56.00
2019-05-07T03:51:18.971Z,64.00
2019-05-07T03:52:19.143Z,68.00
2019-05-07T03:53:19.312Z,76.00
2019-05-07T03:54:20.114Z,84.00
2019-05-07T03:55:19.635Z,92.00
2019-05-07T03:56:23.391Z,100.00
2019-05-07T03:57:23.460Z,108.00
2019-05-07T03:58:23.206Z,112.00
2019-05-07T03:59:23.171Z,120.00
2019-05-07T04:00:23.647Z,132.00
2019-05-07T04:01:23.718Z,144.00
2019-05-07T04:02:23.815Z,152.00
2019-05-07T04:03:24.319Z,168.00
2019-05-07T04:04:22.989Z,184.00
2019-05-07T04:05:23.198Z,196.00
2019-05-07T04:06:23.357Z,208.00
2019-05-07T04:07:23.456Z,216.00
2019-05-07T04:08:23.826Z,224.00
2019-05-07T04:09:24.151Z,236.00
2019-05-07T04:10:23.544Z,244.00
2019-05-07T04:11:23.191Z,256.00
2019-05-07T04:12:24.629Z,268.00
2019-05-07T04:13:24.154Z,276.00
2019-05-07T04:14:24.112Z,288.00
2019-05-07T04:15:23.579Z,304.00
2019-05-07T04:16:24.480Z,316.00
2019-05-07T04:17:26.986Z,336.00
2019-05-07T04:18:24.833Z,352.00
2019-05-07T04:19:24.045Z,372.00
2019-05-07T04:20:24.309Z,392.00
2019-05-07T04:21:24.433Z,412.00
2019-05-07T04:22:28.829Z,424.00
2019-05-07T04:23:25.711Z,440.00
2019-05-07T04:24:24.957Z,452.00
2019-05-07T04:25:25.091Z,468.00
2019-05-07T04:26:25.262Z,484.00
2019-05-07T04:27:25.406Z,496.00
2019-05-07T04:28:25.575Z,512.00
2019-05-07T04:29:25.729Z,524.00
2019-05-07T04:30:26.134Z,544.00
2019-05-07T04:31:26.018Z,564.00
2019-05-07T04:32:26.160Z,584.00
2019-05-07T04:33:26.284Z,612.00
2019-05-07T04:34:26.647Z,640.00
2019-05-07T04:35:27.620Z,664.00
2019-05-07T04:37:03.187Z,688.00
2019-05-07T04:37:26.967Z,716.00
2019-05-07T04:38:27.640Z,744.00
2019-05-07T04:39:27.243Z,780.00
2019-05-07T04:40:27.353Z,816.00
2019-05-07T04:41:27.616Z,864.00
2019-05-07T04:42:27.764Z,916.00
2019-05-07T04:43:27.881Z,968.00
2019-05-07T04:44:28.155Z,1024.00
2019-05-07T04:45:28.636Z,1064.00
2019-05-07T04:46:29.147Z,1104.00
2019-05-07T04:47:38.410Z,1140.00
2019-05-07T04:48:33.747Z,1172.00
2019-05-07T04:49:29.156Z,1184.00
2019-05-07T04:50:42.070Z,1212.00
2019-05-07T04:51:33.613Z,1232.00
2019-05-07T04:52:29.399Z,1236.00
2019-05-07T04:53:32.707Z,1224.00
2019-05-07T04:54:29.702Z,1184.00
2019-05-07T04:55:33.173Z,1112.00
2019-05-07T04:56:29.958Z,996.00
2019-05-07T04:57:32.853Z,904.00
2019-05-07T04:58:33.831Z,820.00
2019-05-07T04:59:32.972Z,772.00
2019-05-07T05:00:33.656Z,732.00
2019-05-07T05:01:32.870Z,700.00
2019-05-07T05:02:32.482Z,680.00
2019-05-07T05:03:34.698Z,660.00
2019-05-07T05:04:34.888Z,652.00
2019-05-07T05:05:33.101Z,660.00
2019-05-07T05:06:33.027Z,672.00
2019-05-07T05:07:33.582Z,672.00
2019-05-07T05:08:32.980Z,672.00
2019-05-07T05:09:32.900Z,668.00
2019-05-07T05:10:33.636Z,644.00
2019-05-07T05:11:33.736Z,616.00
2019-05-07T05:12:33.715Z,600.00
2019-05-07T05:13:33.323Z,612.00
2019-05-07T05:14:34.164Z,636.00
2019-05-07T05:15:33.259Z,652.00
2019-05-07T05:16:33.420Z,672.00
2019-05-07T05:17:46.914Z,708.00
2019-05-07T05:18:36.152Z,728.00
2019-05-07T05:19:33.995Z,736.00
2019-05-07T05:20:34.126Z,748.00
2019-05-07T05:21:34.253Z,752.00
2019-05-07T05:22:34.395Z,756.00
2019-05-07T05:23:34.566Z,756.00
2019-05-07T05:24:35.644Z,764.00
2019-05-07T05:25:34.853Z,772.00
2019-05-07T05:26:35.652Z,776.00
2019-05-07T05:27:35.649Z,784.00
2019-05-07T05:28:35.431Z,788.00
2019-05-07T05:29:35.578Z,776.00
2019-05-07T05:30:35.712Z,768.00
2019-05-07T05:31:36.656Z,796.00
2019-05-07T05:32:36.664Z,812.00
2019-05-07T05:33:36.418Z,824.00
2019-05-07T05:34:37.166Z,836.00
2019-05-07T05:35:36.816Z,848.00
2019-05-07T05:36:36.924Z,860.00
2019-05-07T05:37:37.155Z,864.00
2019-05-07T05:38:37.269Z,860.00
2019-05-07T05:39:37.519Z,844.00
2019-05-07T05:40:37.678Z,816.00
2019-05-07T05:41:38.072Z,784.00
2019-05-07T05:42:38.974Z,752.00
2019-05-07T05:43:38.209Z,724.00
2019-05-07T05:44:38.331Z,708.00
2019-05-07T05:45:38.563Z,704.00
2019-05-07T05:46:39.797Z,704.00
2019-05-07T05:47:42.115Z,716.00
2019-05-07T05:48:42.544Z,736.00
2019-05-07T05:49:39.475Z,760.00
2019-05-07T05:50:42.155Z,784.00
2019-05-07T05:51:39.857Z,800.00
2019-05-07T05:52:42.354Z,816.00
2019-05-07T05:53:40.322Z,852.00
2019-05-07T05:54:42.436Z,900.00
2019-05-07T05:55:42.705Z,960.00
2019-05-07T05:56:42.706Z,1036.00
2019-05-07T05:57:42.486Z,1116.00
2019-05-07T05:58:43.204Z,1208.00
2019-05-07T05:59:49.291Z,1308.00
2019-05-07T06:00:43.601Z,1404.00
2019-05-07T06:01:42.625Z,1508.00
2019-05-07T06:02:44.188Z,1624.00
2019-05-07T06:03:43.172Z,1696.00
2019-05-07T06:04:42.386Z,1776.00
2019-05-07T06:05:42.689Z,1856.00
2019-05-07T06:06:43.676Z,1948.00
2019-05-07T06:07:43.677Z,2056.00
2019-05-07T06:08:43.478Z,2148.00
2019-05-07T06:09:44.304Z,2208.00
2019-05-07T06:10:43.406Z,2248.00
2019-05-07T06:11:43.698Z,2292.00
2019-05-07T06:12:43.722Z,2396.00
2019-05-07T06:13:43.860Z,2484.00
2019-05-07T06:14:44.120Z,2620.00
2019-05-07T06:15:44.215Z,2796.00
2019-05-07T06:16:44.693Z,2952.00
2019-05-07T06:17:44.559Z,3080.00
2019-05-07T06:18:44.812Z,3172.00
2019-05-07T06:19:44.954Z,3308.00
2019-05-07T06:20:45.676Z,3444.00
2019-05-07T06:21:45.686Z,3564.00
2019-05-07T06:22:46.163Z,3680.00
2019-05-07T06:23:46.176Z,3752.00
2019-05-07T06:24:45.802Z,3780.00
2019-05-07T06:25:46.070Z,3808.00
2019-05-07T06:26:46.206Z,3856.00
2019-05-07T06:27:46.466Z,3928.00
2019-05-07T06:28:46.600Z,4036.00
2019-05-07T06:29:46.718Z,4112.00
2019-05-07T06:30:46.848Z,4264.00
2019-05-07T06:31:47.677Z,4400.00
2019-05-07T06:32:47.187Z,4484.00
2019-05-07T06:33:47.325Z,4520.00
2019-05-07T06:34:47.465Z,4532.00
2019-05-07T06:35:47.601Z,4592.00
2019-05-07T06:36:47.745Z,4688.00
2019-05-07T06:37:48.195Z,4828.00
2019-05-07T06:38:48.061Z,4964.00
2019-05-07T06:39:48.713Z,5044.00
2019-05-07T06:40:48.445Z,5176.00
2019-05-07T06:41:48.710Z,5368.00
2019-05-07T06:42:49.683Z,5576.00
2019-05-07T06:43:49.177Z,5856.00
2019-05-07T06:44:51.872Z,6252.00
2019-05-07T06:45:51.747Z,6772.00
2019-05-07T06:46:49.506Z,7396.00
2019-05-07T06:47:51.948Z,7916.00
2019-05-07T06:48:52.731Z,8280.00
2019-05-07T06:49:52.217Z,9700.00
2019-05-07T06:50:52.279Z,10000.00
2019-05-07T06:51:52.813Z,11768.00
2019-05-07T06:52:51.937Z,16288.00
2019-05-07T06:53:51.988Z,11972.00
2019-05-07T06:54:52.375Z,19136.00
2019-05-07T06:55:52.672Z,28576.00
2019-05-07T06:56:52.468Z,23296.00
2019-05-07T06:57:53.060Z,27904.00
2019-05-07T06:58:52.804Z,15360.00
2019-05-07T06:59:53.165Z,26656.00
2019-05-07T07:00:53.691Z,23680.00
2019-05-07T07:01:52.931Z,23584.00
2019-05-07T07:02:54.172Z,24864.00
2019-05-07T07:03:52.748Z,17280.00
2019-05-07T07:04:53.669Z,12324.00
2019-05-07T07:05:52.779Z,12420.00
2019-05-07T07:06:53.685Z,13976.00
2019-05-07T07:07:53.687Z,19168.00
2019-05-07T07:08:53.181Z,9040.00
2019-05-07T07:09:53.320Z,18816.00
2019-05-07T07:10:54.457Z,17824.00
2019-05-07T07:11:54.222Z,10932.00
2019-05-07T07:12:53.887Z,8104.00
2019-05-07T07:13:54.013Z,7860.00
2019-05-07T07:14:54.154Z,7840.00
2019-05-07T07:15:55.213Z,7980.00
2019-05-07T07:16:54.431Z,10448.00
2019-05-07T07:17:54.565Z,17856.00
2019-05-07T07:18:55.963Z,27776.00
2019-05-07T07:19:55.862Z,26816.00
2019-05-07T07:20:55.685Z,28960.00
2019-05-07T07:21:55.678Z,34752.00
2019-05-07T07:22:55.333Z,26784.00
2019-05-07T07:23:55.477Z,25920.00
2019-05-07T07:24:55.695Z,26432.00
2019-05-07T07:25:55.815Z,16384.00
2019-05-07T07:26:57.676Z,9244.00
2019-05-07T07:27:56.155Z,6620.00
2019-05-07T07:28:56.319Z,8764.00
2019-05-07T07:29:56.545Z,11388.00
2019-05-07T07:30:57.192Z,8564.00
2019-05-07T07:31:56.828Z,11552.00
2019-05-07T07:32:57.702Z,7164.00
2019-05-07T07:33:57.190Z,6132.00
2019-05-07T07:34:57.697Z,5552.00
2019-05-07T07:35:57.447Z,5084.00
2019-05-07T07:37:05.998Z,4536.00
2019-05-07T07:37:59.710Z,4104.00
2019-05-07T07:38:57.948Z,3868.00
2019-05-07T07:39:58.078Z,3616.00
2019-05-07T07:40:59.180Z,3396.00
2019-05-07T07:41:58.714Z,3220.00
2019-05-07T07:42:58.603Z,3160.00
2019-05-07T07:43:58.754Z,3064.00
2019-05-07T07:44:59.701Z,3116.00
2019-05-07T07:46:02.072Z,3356.00
2019-05-07T07:46:59.243Z,3280.00
2019-05-07T07:47:59.406Z,3452.00
2019-05-07T07:49:09.832Z,4552.00
2019-05-07T07:50:02.675Z,4820.00
2019-05-07T07:51:03.220Z,3428.00
2019-05-07T07:52:03.174Z,3540.00
2019-05-07T07:53:02.603Z,3528.00
2019-05-07T07:54:02.562Z,3500.00
2019-05-07T07:55:02.161Z,3544.00
2019-05-07T07:56:02.685Z,3624.00
2019-05-07T07:57:02.276Z,3784.00
2019-05-07T07:58:02.647Z,3944.00
2019-05-07T07:59:02.343Z,5204.00
2019-05-07T08:00:02.600Z,4444.00
2019-05-07T08:01:02.924Z,5416.00
2019-05-07T08:02:03.213Z,4888.00
2019-05-07T08:03:02.707Z,5076.00
2019-05-07T08:04:02.891Z,6340.00
2019-05-07T08:05:04.204Z,6056.00
2019-05-07T08:06:02.698Z,6420.00
2019-05-07T08:07:03.794Z,6952.00
2019-05-07T08:08:03.025Z,7088.00
2019-05-07T08:09:03.716Z,7400.00
2019-05-07T08:10:03.327Z,7604.00
2019-05-07T08:11:03.461Z,7868.00
2019-05-07T08:12:03.826Z,8088.00
2019-05-07T08:13:03.817Z,8156.00
2019-05-07T08:14:03.956Z,8256.00
2019-05-07T08:15:17.376Z,8956.00
2019-05-07T08:16:06.304Z,6896.00
2019-05-07T08:17:04.521Z,6868.00
2019-05-07T08:18:04.684Z,6092.00
2019-05-07T08:19:18.436Z,5924.00
2019-05-07T08:20:07.045Z,6776.00
2019-05-07T08:21:07.919Z,6604.00
2019-05-07T08:22:05.407Z,5980.00
2019-05-07T08:23:05.585Z,6560.00
2019-05-07T08:24:05.705Z,6140.00
2019-05-07T08:25:06.722Z,5668.00
2019-05-07T08:26:06.077Z,5556.00
2019-05-07T08:27:07.215Z,5504.00
2019-05-07T08:28:06.740Z,5392.00
2019-05-07T08:29:06.544Z,5196.00
2019-05-07T08:30:07.230Z,5064.00
2019-05-07T08:31:06.857Z,4972.00
2019-05-07T08:32:07.002Z,4768.00
2019-05-07T08:33:09.726Z,4680.00
2019-05-07T08:34:08.376Z,4612.00
2019-05-07T08:35:07.477Z,4680.00
2019-05-07T08:36:07.625Z,6284.00
2019-05-07T08:37:07.761Z,5136.00
2019-05-07T08:38:07.921Z,5300.00
2019-05-07T08:39:08.058Z,5720.00
2019-05-07T08:40:08.229Z,5400.00
2019-05-07T08:41:08.363Z,5460.00
2019-05-07T08:42:08.493Z,5588.00
2019-05-07T08:43:08.601Z,5608.00
2019-05-07T08:44:12.326Z,7824.00
2019-05-07T08:45:11.957Z,6860.00
2019-05-07T08:46:09.225Z,10876.00
2019-05-07T08:47:09.409Z,5240.00
2019-05-07T08:48:09.650Z,4608.00
2019-05-07T08:49:11.960Z,4280.00
2019-05-07T08:50:34.126Z,4188.00
2019-05-07T08:51:11.922Z,4340.00
2019-05-07T08:52:12.043Z,4420.00
2019-05-07T08:53:13.035Z,4464.00
2019-05-07T08:54:12.295Z,4564.00
2019-05-07T08:55:12.594Z,4540.00
2019-05-07T08:56:12.521Z,4528.00
2019-05-07T08:57:33.205Z,4616.00
2019-05-07T08:58:12.033Z,4600.00
2019-05-07T08:59:12.586Z,4600.00
2019-05-07T09:00:12.385Z,4704.00
2019-05-07T09:01:12.959Z,4804.00
2019-05-07T09:02:12.837Z,4792.00
2019-05-07T09:03:20.199Z,4656.00
2019-05-07T09:04:14.404Z,4684.00
2019-05-07T09:05:13.620Z,4760.00
2019-05-07T09:06:12.861Z,4584.00
2019-05-07T09:07:13.233Z,4324.00
2019-05-07T09:08:14.177Z,4180.00
2019-05-07T09:09:14.219Z,3896.00
2019-05-07T09:10:13.603Z,3516.00
2019-05-07T09:11:14.266Z,3184.00
2019-05-07T09:12:13.889Z,3024.00
2019-05-07T09:13:14.051Z,2828.00
2019-05-07T09:14:14.183Z,2576.00
2019-05-07T09:15:14.319Z,2412.00
2019-05-07T09:16:14.473Z,2304.00
2019-05-07T09:17:14.607Z,2204.00
2019-05-07T09:18:14.766Z,2104.00
2019-05-07T09:19:15.733Z,2084.00
2019-05-07T09:20:15.723Z,2044.00
2019-05-07T09:21:15.727Z,2000.00
2019-05-07T09:22:15.339Z,1980.00
2019-05-07T09:23:15.506Z,1920.00
2019-05-07T09:24:15.624Z,1880.00
2019-05-07T09:25:15.770Z,1836.00
2019-05-07T09:26:15.968Z,1804.00
2019-05-07T09:27:16.136Z,1760.00
2019-05-07T09:28:16.296Z,1716.00
2019-05-07T09:29:17.494Z,1672.00
2019-05-07T09:30:16.622Z,1652.00
2019-05-07T09:31:16.807Z,1616.00
2019-05-07T09:32:16.986Z,1592.00
2019-05-07T09:33:17.115Z,1544.00
2019-05-07T09:34:17.234Z,1496.00
2019-05-07T09:35:18.223Z,1456.00
2019-05-07T09:36:17.576Z,1424.00
2019-05-07T09:37:17.718Z,1404.00
2019-05-07T09:38:18.722Z,1380.00
2019-05-07T09:39:18.074Z,1372.00
2019-05-07T09:40:18.228Z,1364.00
2019-05-07T09:41:18.370Z,1376.00
2019-05-07T09:42:18.503Z,1388.00
2019-05-07T09:43:18.643Z,1408.00
2019-05-07T09:44:18.788Z,1420.00
2019-05-07T09:45:18.916Z,1456.00
2019-05-07T09:46:20.744Z,1472.00
2019-05-07T09:47:21.947Z,1504.00
2019-05-07T09:48:19.554Z,1540.00
2019-05-07T09:49:22.138Z,1584.00
2019-05-07T09:50:21.892Z,1624.00
2019-05-07T09:51:20.075Z,1648.00
2019-05-07T09:52:20.239Z,1680.00
2019-05-07T09:53:20.431Z,1704.00
2019-05-07T09:54:20.599Z,1740.00
2019-05-07T09:55:23.377Z,1784.00
2019-05-07T09:56:22.919Z,1824.00
2019-05-07T09:57:30.044Z,1868.00
2019-05-07T09:58:35.658Z,1912.00
2019-05-07T09:59:23.426Z,1964.00
2019-05-07T10:00:22.623Z,2008.00
2019-05-07T10:01:23.681Z,2072.00
2019-05-07T10:02:23.727Z,2132.00
2019-05-07T10:03:22.799Z,2196.00
2019-05-07T10:04:23.378Z,2276.00
2019-05-07T10:05:22.486Z,2364.00
2019-05-07T10:06:22.928Z,2424.00
2019-05-07T10:07:23.764Z,2444.00
2019-05-07T10:08:23.020Z,2500.00
2019-05-07T10:09:23.254Z,2524.00
2019-05-07T10:10:23.285Z,2564.00
2019-05-07T10:11:23.487Z,2628.00
2019-05-07T10:12:23.646Z,2648.00
2019-05-07T10:13:23.775Z,2660.00
2019-05-07T10:14:24.244Z,2620.00
2019-05-07T10:15:24.126Z,2648.00
2019-05-07T10:16:24.268Z,2652.00
2019-05-07T10:17:24.392Z,2640.00
2019-05-07T10:18:24.519Z,2640.00
2019-05-07T10:19:24.805Z,2620.00
2019-05-07T10:20:25.745Z,2568.00
2019-05-07T10:21:24.926Z,2568.00
2019-05-07T10:22:25.199Z,2500.00
2019-05-07T10:23:25.320Z,2484.00
2019-05-07T10:24:25.763Z,2448.00
2019-05-07T10:25:25.741Z,2436.00
2019-05-07T10:26:26.740Z,2428.00
2019-05-07T10:27:26.205Z,2436.00
2019-05-07T10:28:26.447Z,2452.00
2019-05-07T10:29:26.705Z,2480.00
2019-05-07T10:30:27.736Z,2524.00
2019-05-07T10:31:27.054Z,2580.00
2019-05-07T10:32:27.177Z,2636.00
2019-05-07T10:33:27.298Z,2704.00
2019-05-07T10:34:27.763Z,2792.00
2019-05-07T10:35:30.917Z,2916.00
2019-05-07T10:36:27.778Z,2996.00
2019-05-07T10:37:27.910Z,3112.00
2019-05-07T10:38:28.064Z,3176.00
2019-05-07T10:39:28.247Z,3276.00
2019-05-07T10:40:28.368Z,3360.00
2019-05-07T10:41:28.501Z,3460.00
2019-05-07T10:42:29.245Z,3608.00
2019-05-07T10:43:29.751Z,3732.00
2019-05-07T10:44:29.255Z,3892.00
2019-05-07T10:45:29.149Z,4000.00
2019-05-07T10:46:31.922Z,4144.00
2019-05-07T10:47:30.234Z,4316.00
2019-05-07T10:48:32.014Z,4172.00
2019-05-07T10:49:31.725Z,4112.00
2019-05-07T10:50:36.335Z,4000.00
2019-05-07T10:51:32.303Z,3932.00
2019-05-07T10:52:31.834Z,3816.00
2019-05-07T10:53:32.235Z,3712.00
2019-05-07T10:54:31.243Z,3588.00
2019-05-07T10:55:32.706Z,3480.00
2019-05-07T10:56:32.620Z,3364.00
2019-05-07T10:57:32.889Z,3188.00
2019-05-07T10:58:31.990Z,3008.00
2019-05-07T10:59:32.417Z,2800.00
2019-05-07T11:00:33.101Z,2600.00
2019-05-07T11:01:32.956Z,2396.00
2019-05-07T11:02:33.038Z,2204.00
2019-05-07T11:03:32.572Z,2012.00
2019-05-07T11:04:42.123Z,1856.00
2019-05-07T11:05:34.764Z,1752.00
2019-05-07T11:06:32.698Z,1660.00
2019-05-07T11:07:33.264Z,1576.00
2019-05-07T11:08:33.747Z,1512.00
2019-05-07T11:09:33.760Z,1452.00
2019-05-07T11:10:34.238Z,1424.00
2019-05-07T11:11:33.605Z,1388.00
2019-05-07T11:12:33.762Z,1364.00
2019-05-07T11:13:33.914Z,1344.00
2019-05-07T11:14:34.047Z,1344.00
2019-05-07T11:15:34.201Z,1364.00
2019-05-07T11:16:34.354Z,1400.00
2019-05-07T11:17:34.507Z,1428.00
2019-05-07T11:18:34.751Z,1456.00
2019-05-07T11:19:34.862Z,1464.00
2019-05-07T11:20:46.416Z,1480.00
2019-05-07T11:21:37.185Z,1480.00
2019-05-07T11:22:35.390Z,1480.00
2019-05-07T11:23:35.759Z,1476.00
2019-05-07T11:24:35.765Z,1480.00
2019-05-07T11:25:35.904Z,1488.00
2019-05-07T11:26:36.024Z,1496.00
2019-05-07T11:27:36.161Z,1520.00
2019-05-07T11:28:36.302Z,1556.00
2019-05-07T11:29:37.251Z,1568.00
2019-05-07T11:30:36.612Z,1580.00
2019-05-07T11:31:36.760Z,1616.00
2019-05-07T11:32:36.881Z,1644.00
2019-05-07T11:33:37.026Z,1676.00
2019-05-07T11:34:37.186Z,1680.00
2019-05-07T11:35:37.335Z,1732.00
2019-05-07T11:36:37.522Z,1788.00
2019-05-07T11:37:37.643Z,1844.00
2019-05-07T11:38:37.785Z,1932.00
2019-05-07T11:39:37.988Z,1984.00
2019-05-07T11:40:38.138Z,2028.00
2019-05-07T11:41:38.292Z,2044.00
2019-05-07T11:42:38.441Z,2040.00
2019-05-07T11:43:38.569Z,2028.00
2019-05-07T11:44:38.766Z,2016.00
2019-05-07T11:45:38.897Z,2020.00
2019-05-07T11:46:39.043Z,2008.00
2019-05-07T11:47:39.207Z,1996.00
2019-05-07T11:48:39.377Z,1984.00
2019-05-07T11:50:14.926Z,1972.00
2019-05-07T11:50:39.764Z,1960.00
2019-05-07T11:51:39.928Z,1944.00
2019-05-07T11:52:40.078Z,1932.00
2019-05-07T11:53:41.892Z,1928.00
2019-05-07T11:54:42.163Z,1956.00
2019-05-07T11:55:42.283Z,1992.00
2019-05-07T11:56:42.328Z,2016.00
2019-05-07T11:57:44.258Z,2072.00
2019-05-07T11:58:42.185Z,2140.00
2019-05-07T11:59:41.855Z,2240.00
2019-05-07T12:00:42.723Z,2372.00
2019-05-07T12:01:47.211Z,2520.00
2019-05-07T12:02:47.128Z,2780.00
2019-05-07T12:03:42.940Z,3240.00
2019-05-07T12:04:43.333Z,3228.00
2019-05-07T12:05:42.578Z,3004.00
2019-05-07T12:06:43.334Z,3104.00
2019-05-07T12:07:43.782Z,3184.00
2019-05-07T12:08:49.812Z,3256.00
2019-05-07T12:09:45.261Z,3352.00
2019-05-07T12:10:44.269Z,3620.00
2019-05-07T12:11:44.625Z,3732.00
2019-05-07T12:12:43.872Z,3768.00
2019-05-07T12:13:44.797Z,3772.00
2019-05-07T12:14:44.145Z,3728.00
2019-05-07T12:15:44.285Z,3752.00
2019-05-07T12:16:45.314Z,3760.00
2019-05-07T12:17:44.560Z,3768.00
2019-05-07T12:18:44.683Z,3712.00
2019-05-07T12:19:44.905Z,3700.00
2019-05-07T12:20:45.298Z,3716.00
2019-05-07T12:21:45.204Z,3672.00
2019-05-07T12:22:45.348Z,3688.00
2019-05-07T12:23:45.504Z,3628.00
2019-05-07T12:24:45.839Z,3600.00
2019-05-07T12:25:46.805Z,3504.00
2019-05-07T12:26:45.914Z,3400.00
2019-05-07T12:27:46.057Z,3408.00
2019-05-07T12:28:46.213Z,3324.00
2019-05-07T12:29:46.372Z,3332.00
2019-05-07T12:30:46.510Z,3168.00